sensor_id;sensor_type;location;lat;lon;timestamp;temperature;humidity
53776;DHT22;44276;49.534;6.378;2022-11-25T00:01:06;6.20;99.90
53776;DHT22;44276;49.534;6.378;2022-11-25T00:03:37;6.30;99.90
53776;DHT22;44276;49.534;6.378;2022-11-25T00:06:07;6.30;99.90
53776;DHT22;44276;49.534;6.378;2022-11-25T00:08:38;6.30;99.90
53776;DHT22;44276;49.534;6.378;2022-11-25T00:11:07;6.40;99.90
53776;DHT22;44276;49.534;6.378;2022-11-25T00:13:36;6.40;99.90
53776;DHT22;44276;49.534;6.378;2022-11-25T00:16:06;6.40;99.90
53776;DHT22;44276;49.534;6.378;2022-11-25T00:18:37;6.40;99.90
53776;DHT22;44276;49.534;6.378;2022-11-25T00:21:06;6.50;99.90
53776;DHT22;44276;49.534;6.378;2022-11-25T00:23:36;6.50;99.90
53776;DHT22;44276;49.534;6.378;2022-11-25T00:26:06;6.50;99.90
53776;DHT22;44276;49.534;6.378;2022-11-25T00:28:36;6.50;99.90
53776;DHT22;44276;49.534;6.378;2022-11-25T00:31:09;6.50;99.90
53776;DHT22;44276;49.534;6.378;2022-11-25T00:33:38;6.50;99.90
53776;DHT22;44276;49.534;6.378;2022-11-25T00:36:15;6.50;99.90
53776;DHT22;44276;49.534;6.378;2022-11-25T00:38:46;6.50;99.90
53776;DHT22;44276;49.534;6.378;2022-11-25T00:41:18;6.50;99.90
53776;DHT22;44276;49.534;6.378;2022-11-25T00:44:04;6.50;99.90
53776;DHT22;44276;49.534;6.378;2022-11-25T00:46:51;6.50;99.90
53776;DHT22;44276;49.534;6.378;2022-11-25T00:49:19;6.40;99.90
53776;DHT22;44276;49.534;6.378;2022-11-25T00:51:48;6.40;99.90
53776;DHT22;44276;49.534;6.378;2022-11-25T00:54:17;6.40;99.90
53776;DHT22;44276;49.534;6.378;2022-11-25T00:56:46;6.30;99.90
53776;DHT22;44276;49.534;6.378;2022-11-25T00:59:14;6.30;99.90
53776;DHT22;44276;49.534;6.378;2022-11-25T01:01:42;6.40;99.90
53776;DHT22;44276;49.534;6.378;2022-11-25T01:04:10;6.40;99.90
53776;DHT22;44276;49.534;6.378;2022-11-25T01:06:38;6.40;99.90
53776;DHT22;44276;49.534;6.378;2022-11-25T01:09:07;6.50;99.90
53776;DHT22;44276;49.534;6.378;2022-11-25T01:11:39;6.70;99.90
53776;DHT22;44276;49.534;6.378;2022-11-25T01:14:08;6.70;99.90
53776;DHT22;44276;49.534;6.378;2022-11-25T01:16:38;6.70;99.90
53776;DHT22;44276;49.534;6.378;2022-11-25T01:19:06;6.90;99.90
53776;DHT22;44276;49.534;6.378;2022-11-25T01:21:35;7.00;99.90
53776;DHT22;44276;49.534;6.378;2022-11-25T01:24:03;7.10;99.90
53776;DHT22;44276;49.534;6.378;2022-11-25T01:26:33;7.30;99.90
53776;DHT22;44276;49.534;6.378;2022-11-25T01:29:04;7.40;99.90
53776;DHT22;44276;49.534;6.378;2022-11-25T01:31:35;7.40;99.90
53776;DHT22;44276;49.534;6.378;2022-11-25T01:34:04;7.50;99.90
53776;DHT22;44276;49.534;6.378;2022-11-25T01:36:34;7.50;99.90
53776;DHT22;44276;49.534;6.378;2022-11-25T01:39:03;7.50;99.90
53776;DHT22;44276;49.534;6.378;2022-11-25T01:41:36;7.50;99.90
53776;DHT22;44276;49.534;6.378;2022-11-25T01:44:06;7.40;99.90
53776;DHT22;44276;49.534;6.378;2022-11-25T01:46:45;7.40;99.90
53776;DHT22;44276;49.534;6.378;2022-11-25T01:49:18;7.30;99.90
53776;DHT22;44276;49.534;6.378;2022-11-25T01:51:52;7.30;99.90
53776;DHT22;44276;49.534;6.378;2022-11-25T01:54:26;7.30;99.90
53776;DHT22;44276;49.534;6.378;2022-11-25T01:57:00;7.20;99.90
53776;DHT22;44276;49.534;6.378;2022-11-25T01:59:36;7.20;99.90
53776;DHT22;44276;49.534;6.378;2022-11-25T02:02:08;7.10;99.90
53776;DHT22;44276;49.534;6.378;2022-11-25T02:04:38;7.00;99.90
53776;DHT22;44276;49.534;6.378;2022-11-25T02:07:08;7.10;99.90
53776;DHT22;44276;49.534;6.378;2022-11-25T02:09:41;7.00;99.90
53776;DHT22;44276;49.534;6.378;2022-11-25T02:12:12;6.80;99.90
53776;DHT22;44276;49.534;6.378;2022-11-25T02:14:45;6.80;99.90
53776;DHT22;44276;49.534;6.378;2022-11-25T02:17:13;6.80;99.90
53776;DHT22;44276;49.534;6.378;2022-11-25T02:19:45;6.80;99.90
53776;DHT22;44276;49.534;6.378;2022-11-25T02:22:24;6.90;99.90
53776;DHT22;44276;49.534;6.378;2022-11-25T02:24:59;6.90;99.90
53776;DHT22;44276;49.534;6.378;2022-11-25T02:27:36;6.80;99.90
53776;DHT22;44276;49.534;6.378;2022-11-25T02:30:05;6.70;99.90
53776;DHT22;44276;49.534;6.378;2022-11-25T02:32:34;6.60;99.90
53776;DHT22;44276;49.534;6.378;2022-11-25T02:35:17;6.70;99.90
53776;DHT22;44276;49.534;6.378;2022-11-25T02:37:53;6.80;99.90
53776;DHT22;44276;49.534;6.378;2022-11-25T02:40:25;6.90;99.90
53776;DHT22;44276;49.534;6.378;2022-11-25T02:42:55;6.90;99.90
53776;DHT22;44276;49.534;6.378;2022-11-25T02:45:29;6.90;99.90
53776;DHT22;44276;49.534;6.378;2022-11-25T02:48:04;6.80;99.90
53776;DHT22;44276;49.534;6.378;2022-11-25T02:50:32;6.90;99.90
53776;DHT22;44276;49.534;6.378;2022-11-25T02:53:04;6.90;99.90
53776;DHT22;44276;49.534;6.378;2022-11-25T02:55:35;7.00;99.90
53776;DHT22;44276;49.534;6.378;2022-11-25T02:58:04;7.00;99.90
53776;DHT22;44276;49.534;6.378;2022-11-25T03:00:32;7.00;99.90
53776;DHT22;44276;49.534;6.378;2022-11-25T03:03:01;7.00;99.90
53776;DHT22;44276;49.534;6.378;2022-11-25T03:05:29;7.10;99.90
53776;DHT22;44276;49.534;6.378;2022-11-25T03:07:57;7.10;99.90
53776;DHT22;44276;49.534;6.378;2022-11-25T03:10:27;7.10;99.90
53776;DHT22;44276;49.534;6.378;2022-11-25T03:12:57;7.10;99.90
53776;DHT22;44276;49.534;6.378;2022-11-25T03:15:25;7.20;99.90
53776;DHT22;44276;49.534;6.378;2022-11-25T03:17:54;7.10;99.90
53776;DHT22;44276;49.534;6.378;2022-11-25T03:20:22;7.00;99.90
53776;DHT22;44276;49.534;6.378;2022-11-25T03:22:51;7.00;99.90
53776;DHT22;44276;49.534;6.378;2022-11-25T03:25:19;6.90;99.90
53776;DHT22;44276;49.534;6.378;2022-11-25T03:27:48;6.80;99.90
53776;DHT22;44276;49.534;6.378;2022-11-25T03:30:19;6.80;99.90
53776;DHT22;44276;49.534;6.378;2022-11-25T03:32:48;6.80;99.90
53776;DHT22;44276;49.534;6.378;2022-11-25T03:35:16;6.90;99.90
53776;DHT22;44276;49.534;6.378;2022-11-25T03:37:45;6.90;99.90
53776;DHT22;44276;49.534;6.378;2022-11-25T03:40:14;6.90;99.90
53776;DHT22;44276;49.534;6.378;2022-11-25T03:42:43;6.90;99.90
53776;DHT22;44276;49.534;6.378;2022-11-25T03:45:13;6.90;99.90
53776;DHT22;44276;49.534;6.378;2022-11-25T03:47:43;7.00;99.90
53776;DHT22;44276;49.534;6.378;2022-11-25T03:50:13;7.00;99.90
53776;DHT22;44276;49.534;6.378;2022-11-25T03:52:41;7.00;99.90
53776;DHT22;44276;49.534;6.378;2022-11-25T03:55:09;7.10;99.90
53776;DHT22;44276;49.534;6.378;2022-11-25T03:57:38;7.10;99.90
53776;DHT22;44276;49.534;6.378;2022-11-25T04:00:07;7.10;99.90
53776;DHT22;44276;49.534;6.378;2022-11-25T04:02:36;7.10;99.90
53776;DHT22;44276;49.534;6.378;2022-11-25T04:05:06;7.10;99.90
53776;DHT22;44276;49.534;6.378;2022-11-25T04:07:34;7.10;99.90
53776;DHT22;44276;49.534;6.378;2022-11-25T04:10:03;7.20;99.90
53776;DHT22;44276;49.534;6.378;2022-11-25T04:12:31;7.30;99.90
53776;DHT22;44276;49.534;6.378;2022-11-25T04:15:14;7.40;99.90
53776;DHT22;44276;49.534;6.378;2022-11-25T04:17:42;7.40;99.90
53776;DHT22;44276;49.534;6.378;2022-11-25T04:20:12;7.40;99.90
53776;DHT22;44276;49.534;6.378;2022-11-25T04:22:41;7.50;99.90
53776;DHT22;44276;49.534;6.378;2022-11-25T04:25:09;7.40;99.90
53776;DHT22;44276;49.534;6.378;2022-11-25T04:27:38;7.40;99.90
53776;DHT22;44276;49.534;6.378;2022-11-25T04:30:06;7.40;99.90
53776;DHT22;44276;49.534;6.378;2022-11-25T04:32:35;7.50;99.90
53776;DHT22;44276;49.534;6.378;2022-11-25T04:35:04;7.50;99.90
53776;DHT22;44276;49.534;6.378;2022-11-25T04:37:33;7.50;99.90
53776;DHT22;44276;49.534;6.378;2022-11-25T04:40:02;7.50;99.90
53776;DHT22;44276;49.534;6.378;2022-11-25T04:42:31;7.50;99.90
53776;DHT22;44276;49.534;6.378;2022-11-25T04:45:00;7.40;99.90
53776;DHT22;44276;49.534;6.378;2022-11-25T04:47:48;7.40;99.90
53776;DHT22;44276;49.534;6.378;2022-11-25T04:50:17;7.40;99.90
53776;DHT22;44276;49.534;6.378;2022-11-25T04:52:48;7.30;99.90
53776;DHT22;44276;49.534;6.378;2022-11-25T04:55:16;7.30;99.90
53776;DHT22;44276;49.534;6.378;2022-11-25T04:57:44;7.30;99.90
53776;DHT22;44276;49.534;6.378;2022-11-25T05:00:12;7.30;99.90
53776;DHT22;44276;49.534;6.378;2022-11-25T05:02:40;7.30;99.90
53776;DHT22;44276;49.534;6.378;2022-11-25T05:05:08;7.30;99.90
53776;DHT22;44276;49.534;6.378;2022-11-25T05:07:36;7.30;99.90
53776;DHT22;44276;49.534;6.378;2022-11-25T05:10:06;7.20;99.90
53776;DHT22;44276;49.534;6.378;2022-11-25T05:12:35;7.20;99.90
53776;DHT22;44276;49.534;6.378;2022-11-25T05:15:04;7.10;99.90
53776;DHT22;44276;49.534;6.378;2022-11-25T05:17:33;7.10;99.90
53776;DHT22;44276;49.534;6.378;2022-11-25T05:20:02;7.10;99.90
53776;DHT22;44276;49.534;6.378;2022-11-25T05:22:32;7.00;99.90
53776;DHT22;44276;49.534;6.378;2022-11-25T05:25:00;7.10;99.90
53776;DHT22;44276;49.534;6.378;2022-11-25T05:27:32;7.10;99.90
53776;DHT22;44276;49.534;6.378;2022-11-25T05:30:00;7.10;99.90
53776;DHT22;44276;49.534;6.378;2022-11-25T05:32:28;7.10;99.90
53776;DHT22;44276;49.534;6.378;2022-11-25T05:34:56;7.10;99.90
53776;DHT22;44276;49.534;6.378;2022-11-25T05:37:24;7.10;99.90
53776;DHT22;44276;49.534;6.378;2022-11-25T05:39:52;7.20;99.90
53776;DHT22;44276;49.534;6.378;2022-11-25T05:42:20;7.20;99.90
53776;DHT22;44276;49.534;6.378;2022-11-25T05:44:49;7.10;99.90
53776;DHT22;44276;49.534;6.378;2022-11-25T05:47:17;7.10;99.90
53776;DHT22;44276;49.534;6.378;2022-11-25T05:49:45;7.20;99.90
53776;DHT22;44276;49.534;6.378;2022-11-25T05:52:12;7.20;99.90
53776;DHT22;44276;49.534;6.378;2022-11-25T05:54:40;7.20;99.90
53776;DHT22;44276;49.534;6.378;2022-11-25T05:57:08;7.20;99.90
53776;DHT22;44276;49.534;6.378;2022-11-25T05:59:36;7.20;99.90
53776;DHT22;44276;49.534;6.378;2022-11-25T06:02:06;7.20;99.90
53776;DHT22;44276;49.534;6.378;2022-11-25T06:04:34;7.20;99.90
53776;DHT22;44276;49.534;6.378;2022-11-25T06:07:02;7.20;99.90
53776;DHT22;44276;49.534;6.378;2022-11-25T06:09:30;7.20;99.90
53776;DHT22;44276;49.534;6.378;2022-11-25T06:11:58;7.30;99.90
53776;DHT22;44276;49.534;6.378;2022-11-25T06:14:26;7.30;99.90
53776;DHT22;44276;49.534;6.378;2022-11-25T06:16:54;7.40;99.90
53776;DHT22;44276;49.534;6.378;2022-11-25T06:19:23;7.50;99.90
53776;DHT22;44276;49.534;6.378;2022-11-25T06:21:51;7.50;99.90
53776;DHT22;44276;49.534;6.378;2022-11-25T06:24:19;7.50;99.90
53776;DHT22;44276;49.534;6.378;2022-11-25T06:26:48;7.40;99.90
53776;DHT22;44276;49.534;6.378;2022-11-25T06:29:16;7.50;99.90
53776;DHT22;44276;49.534;6.378;2022-11-25T06:31:44;7.50;99.90
53776;DHT22;44276;49.534;6.378;2022-11-25T06:34:12;7.60;99.90
53776;DHT22;44276;49.534;6.378;2022-11-25T06:36:42;7.60;99.90
53776;DHT22;44276;49.534;6.378;2022-11-25T06:39:10;7.60;99.90
53776;DHT22;44276;49.534;6.378;2022-11-25T06:41:38;7.60;99.90
53776;DHT22;44276;49.534;6.378;2022-11-25T06:44:06;7.70;99.90
53776;DHT22;44276;49.534;6.378;2022-11-25T06:46:34;7.70;99.90
53776;DHT22;44276;49.534;6.378;2022-11-25T06:49:02;7.80;99.90
53776;DHT22;44276;49.534;6.378;2022-11-25T06:51:30;7.80;99.90
53776;DHT22;44276;49.534;6.378;2022-11-25T06:54:00;7.70;99.90
53776;DHT22;44276;49.534;6.378;2022-11-25T06:56:28;7.80;99.90
53776;DHT22;44276;49.534;6.378;2022-11-25T06:58:56;7.80;99.90
53776;DHT22;44276;49.534;6.378;2022-11-25T07:01:24;7.90;99.90
53776;DHT22;44276;49.534;6.378;2022-11-25T07:03:54;7.90;99.90
53776;DHT22;44276;49.534;6.378;2022-11-25T07:06:25;7.90;99.90
53776;DHT22;44276;49.534;6.378;2022-11-25T07:08:53;8.00;99.90
53776;DHT22;44276;49.534;6.378;2022-11-25T07:11:23;8.00;99.90
53776;DHT22;44276;49.534;6.378;2022-11-25T07:13:54;8.00;99.90
53776;DHT22;44276;49.534;6.378;2022-11-25T07:16:24;8.00;99.90
53776;DHT22;44276;49.534;6.378;2022-11-25T07:18:53;8.00;99.90
53776;DHT22;44276;49.534;6.378;2022-11-25T07:21:22;8.00;99.90
53776;DHT22;44276;49.534;6.378;2022-11-25T07:23:51;8.00;99.90
53776;DHT22;44276;49.534;6.378;2022-11-25T07:26:20;8.00;99.90
53776;DHT22;44276;49.534;6.378;2022-11-25T07:28:51;8.10;99.90
53776;DHT22;44276;49.534;6.378;2022-11-25T07:31:21;8.10;99.90
53776;DHT22;44276;49.534;6.378;2022-11-25T07:33:57;8.10;99.90
53776;DHT22;44276;49.534;6.378;2022-11-25T07:36:27;8.20;99.90
53776;DHT22;44276;49.534;6.378;2022-11-25T07:38:57;8.30;99.90
53776;DHT22;44276;49.534;6.378;2022-11-25T07:41:27;8.30;99.90
53776;DHT22;44276;49.534;6.378;2022-11-25T07:43:58;8.30;99.90
53776;DHT22;44276;49.534;6.378;2022-11-25T07:46:28;8.40;99.90
53776;DHT22;44276;49.534;6.378;2022-11-25T07:48:59;8.40;99.90
53776;DHT22;44276;49.534;6.378;2022-11-25T07:51:29;8.40;99.90
53776;DHT22;44276;49.534;6.378;2022-11-25T07:53:58;8.40;99.90
53776;DHT22;44276;49.534;6.378;2022-11-25T07:56:28;8.50;99.90
53776;DHT22;44276;49.534;6.378;2022-11-25T07:58:58;8.60;99.90
53776;DHT22;44276;49.534;6.378;2022-11-25T08:01:26;8.60;99.90
53776;DHT22;44276;49.534;6.378;2022-11-25T08:03:58;8.60;99.90
53776;DHT22;44276;49.534;6.378;2022-11-25T08:06:28;8.60;99.90
53776;DHT22;44276;49.534;6.378;2022-11-25T08:09:16;8.70;99.90
53776;DHT22;44276;49.534;6.378;2022-11-25T08:11:46;8.60;99.90
53776;DHT22;44276;49.534;6.378;2022-11-25T08:14:18;8.60;99.90
53776;DHT22;44276;49.534;6.378;2022-11-25T08:16:51;8.50;99.90
53776;DHT22;44276;49.534;6.378;2022-11-25T08:19:22;8.40;99.90
53776;DHT22;44276;49.534;6.378;2022-11-25T08:22:00;8.50;99.90
53776;DHT22;44276;49.534;6.378;2022-11-25T08:24:38;8.60;99.90
53776;DHT22;44276;49.534;6.378;2022-11-25T08:27:08;8.70;99.90
53776;DHT22;44276;49.534;6.378;2022-11-25T08:32:23;8.90;99.90
53776;DHT22;44276;49.534;6.378;2022-11-25T08:34:52;9.10;99.90
53776;DHT22;44276;49.534;6.378;2022-11-25T08:37:23;9.10;99.90
53776;DHT22;44276;49.534;6.378;2022-11-25T08:39:51;9.10;99.90
53776;DHT22;44276;49.534;6.378;2022-11-25T08:42:20;9.10;99.90
53776;DHT22;44276;49.534;6.378;2022-11-25T08:44:54;9.10;99.90
53776;DHT22;44276;49.534;6.378;2022-11-25T08:47:23;9.10;99.90
53776;DHT22;44276;49.534;6.378;2022-11-25T08:49:52;9.20;99.90
53776;DHT22;44276;49.534;6.378;2022-11-25T08:52:33;9.30;99.90
53776;DHT22;44276;49.534;6.378;2022-11-25T08:55:06;9.30;99.90
53776;DHT22;44276;49.534;6.378;2022-11-25T08:57:43;9.50;99.90
53776;DHT22;44276;49.534;6.378;2022-11-25T09:00:17;9.70;99.90
53776;DHT22;44276;49.534;6.378;2022-11-25T09:02:52;10.40;99.90
53776;DHT22;44276;49.534;6.378;2022-11-25T09:05:21;11.60;99.90
53776;DHT22;44276;49.534;6.378;2022-11-25T09:07:50;12.80;99.90
53776;DHT22;44276;49.534;6.378;2022-11-25T09:10:21;13.60;92.10
53776;DHT22;44276;49.534;6.378;2022-11-25T09:12:50;13.90;70.40
53776;DHT22;44276;49.534;6.378;2022-11-25T09:15:25;13.10;80.40
53776;DHT22;44276;49.534;6.378;2022-11-25T09:17:57;12.20;99.90
53776;DHT22;44276;49.534;6.378;2022-11-25T09:20:28;11.60;99.90
53776;DHT22;44276;49.534;6.378;2022-11-25T09:23:03;11.10;99.90
53776;DHT22;44276;49.534;6.378;2022-11-25T09:25:37;10.80;99.90
53776;DHT22;44276;49.534;6.378;2022-11-25T09:28:23;10.80;99.90
53776;DHT22;44276;49.534;6.378;2022-11-25T09:30:53;11.00;99.90
53776;DHT22;44276;49.534;6.378;2022-11-25T09:33:23;11.10;99.90
53776;DHT22;44276;49.534;6.378;2022-11-25T09:36:05;11.10;99.90
53776;DHT22;44276;49.534;6.378;2022-11-25T09:38:34;11.00;99.90
53776;DHT22;44276;49.534;6.378;2022-11-25T09:41:12;10.90;99.90
53776;DHT22;44276;49.534;6.378;2022-11-25T09:44:12;10.80;99.90
53776;DHT22;44276;49.534;6.378;2022-11-25T09:47:12;10.80;99.90
53776;DHT22;44276;49.534;6.378;2022-11-25T09:49:52;10.90;99.90
53776;DHT22;44276;49.534;6.378;2022-11-25T09:52:32;10.80;99.90
53776;DHT22;44276;49.534;6.378;2022-11-25T09:55:08;10.90;99.90
53776;DHT22;44276;49.534;6.378;2022-11-25T09:57:47;10.90;99.90
53776;DHT22;44276;49.534;6.378;2022-11-25T10:00:27;11.00;99.90
53776;DHT22;44276;49.534;6.378;2022-11-25T10:03:05;11.10;99.90
53776;DHT22;44276;49.534;6.378;2022-11-25T10:05:40;11.40;99.90
53776;DHT22;44276;49.534;6.378;2022-11-25T10:08:14;11.70;99.90
53776;DHT22;44276;49.534;6.378;2022-11-25T10:10:47;12.00;99.90
53776;DHT22;44276;49.534;6.378;2022-11-25T10:13:21;12.10;99.90
53776;DHT22;44276;49.534;6.378;2022-11-25T10:15:56;12.00;99.90
53776;DHT22;44276;49.534;6.378;2022-11-25T10:18:31;11.70;99.90
53776;DHT22;44276;49.534;6.378;2022-11-25T10:21:07;11.50;99.90
53776;DHT22;44276;49.534;6.378;2022-11-25T10:23:37;11.30;99.90
53776;DHT22;44276;49.534;6.378;2022-11-25T10:26:09;11.20;99.90
53776;DHT22;44276;49.534;6.378;2022-11-25T10:28:40;11.10;99.90
53776;DHT22;44276;49.534;6.378;2022-11-25T10:31:15;11.00;99.90
53776;DHT22;44276;49.534;6.378;2022-11-25T10:33:47;10.90;99.90
53776;DHT22;44276;49.534;6.378;2022-11-25T10:36:19;10.90;99.90
53776;DHT22;44276;49.534;6.378;2022-11-25T10:38:53;10.90;99.90
53776;DHT22;44276;49.534;6.378;2022-11-25T10:41:27;10.90;99.90
53776;DHT22;44276;49.534;6.378;2022-11-25T10:43:58;10.80;99.90
53776;DHT22;44276;49.534;6.378;2022-11-25T10:46:28;10.90;99.90
53776;DHT22;44276;49.534;6.378;2022-11-25T10:49:26;11.00;99.90
53776;DHT22;44276;49.534;6.378;2022-11-25T10:51:58;11.20;99.90
53776;DHT22;44276;49.534;6.378;2022-11-25T10:54:26;11.50;99.90
53776;DHT22;44276;49.534;6.378;2022-11-25T10:56:56;11.80;99.90
53776;DHT22;44276;49.534;6.378;2022-11-25T10:59:28;12.10;99.90
53776;DHT22;44276;49.534;6.378;2022-11-25T11:04:54;12.40;99.90
53776;DHT22;44276;49.534;6.378;2022-11-25T11:07:25;12.60;84.00
53776;DHT22;44276;49.534;6.378;2022-11-25T11:10:06;13.00;76.00
53776;DHT22;44276;49.534;6.378;2022-11-25T11:12:49;13.30;66.20
53776;DHT22;44276;49.534;6.378;2022-11-25T11:15:28;14.00;55.40
53776;DHT22;44276;49.534;6.378;2022-11-25T11:17:57;14.20;56.10
53776;DHT22;44276;49.534;6.378;2022-11-25T11:20:28;13.70;57.40
53776;DHT22;44276;49.534;6.378;2022-11-25T11:23:00;13.50;63.60
53776;DHT22;44276;49.534;6.378;2022-11-25T11:25:35;13.90;54.60
53776;DHT22;44276;49.534;6.378;2022-11-25T11:30:56;13.60;53.10
53776;DHT22;44276;49.534;6.378;2022-11-25T11:33:28;13.70;53.10
53776;DHT22;44276;49.534;6.378;2022-11-25T11:36:05;13.40;56.80
53776;DHT22;44276;49.534;6.378;2022-11-25T11:38:52;12.90;58.50
53776;DHT22;44276;49.534;6.378;2022-11-25T11:41:25;12.50;63.30
53776;DHT22;44276;49.534;6.378;2022-11-25T11:44:13;12.30;66.00
53776;DHT22;44276;49.534;6.378;2022-11-25T11:46:51;12.10;72.70
53776;DHT22;44276;49.534;6.378;2022-11-25T11:49:42;12.10;79.20
53776;DHT22;44276;49.534;6.378;2022-11-25T11:52:25;11.90;78.00
53776;DHT22;44276;49.534;6.378;2022-11-25T11:55:11;11.80;79.90
53776;DHT22;44276;49.534;6.378;2022-11-25T11:57:48;11.60;81.30
53776;DHT22;44276;49.534;6.378;2022-11-25T12:00:26;11.60;98.50
53776;DHT22;44276;49.534;6.378;2022-11-25T12:02:59;11.80;95.20
53776;DHT22;44276;49.534;6.378;2022-11-25T12:05:32;11.90;93.50
53776;DHT22;44276;49.534;6.378;2022-11-25T12:08:04;12.40;84.60
53776;DHT22;44276;49.534;6.378;2022-11-25T12:10:39;12.80;67.80
53776;DHT22;44276;49.534;6.378;2022-11-25T12:13:12;12.80;67.10
53776;DHT22;44276;49.534;6.378;2022-11-25T12:15:47;12.70;69.30
53776;DHT22;44276;49.534;6.378;2022-11-25T12:18:31;12.60;62.20
53776;DHT22;44276;49.534;6.378;2022-11-25T12:21:05;12.50;65.00
53776;DHT22;44276;49.534;6.378;2022-11-25T12:23:43;12.50;59.10
53776;DHT22;44276;49.534;6.378;2022-11-25T12:26:19;12.50;64.30
53776;DHT22;44276;49.534;6.378;2022-11-25T12:28:53;12.40;59.90
53776;DHT22;44276;49.534;6.378;2022-11-25T12:31:25;12.10;61.40
53776;DHT22;44276;49.534;6.378;2022-11-25T12:34:00;11.90;62.40
53776;DHT22;44276;49.534;6.378;2022-11-25T12:36:33;11.70;63.40
53776;DHT22;44276;49.534;6.378;2022-11-25T12:39:09;11.60;65.80
53776;DHT22;44276;49.534;6.378;2022-11-25T12:41:44;11.60;66.60
53776;DHT22;44276;49.534;6.378;2022-11-25T12:44:19;11.60;64.90
53776;DHT22;44276;49.534;6.378;2022-11-25T12:46:52;11.70;67.30
53776;DHT22;44276;49.534;6.378;2022-11-25T12:49:23;11.80;65.80
53776;DHT22;44276;49.534;6.378;2022-11-25T12:51:56;11.90;63.30
53776;DHT22;44276;49.534;6.378;2022-11-25T12:54:39;11.80;58.30
53776;DHT22;44276;49.534;6.378;2022-11-25T12:57:27;11.80;59.30
53776;DHT22;44276;49.534;6.378;2022-11-25T13:00:16;12.00;61.50
53776;DHT22;44276;49.534;6.378;2022-11-25T13:03:17;12.20;64.10
53776;DHT22;44276;49.534;6.378;2022-11-25T13:06:21;12.10;58.40
53776;DHT22;44276;49.534;6.378;2022-11-25T13:08:59;12.10;57.60
53776;DHT22;44276;49.534;6.378;2022-11-25T13:14:38;12.20;53.70
53776;DHT22;44276;49.534;6.378;2022-11-25T13:17:27;11.90;55.50
53776;DHT22;44276;49.534;6.378;2022-11-25T13:23:00;11.70;62.40
53776;DHT22;44276;49.534;6.378;2022-11-25T13:25:33;11.70;64.40
53776;DHT22;44276;49.534;6.378;2022-11-25T13:28:04;11.80;63.40
53776;DHT22;44276;49.534;6.378;2022-11-25T13:30:52;11.90;64.40
53776;DHT22;44276;49.534;6.378;2022-11-25T13:36:41;12.00;68.10
53776;DHT22;44276;49.534;6.378;2022-11-25T13:39:15;12.00;67.50
53776;DHT22;44276;49.534;6.378;2022-11-25T13:41:48;11.80;70.20
53776;DHT22;44276;49.534;6.378;2022-11-25T13:44:27;11.80;72.70
53776;DHT22;44276;49.534;6.378;2022-11-25T13:46:58;11.60;77.90
53776;DHT22;44276;49.534;6.378;2022-11-25T13:49:50;11.40;81.30
53776;DHT22;44276;49.534;6.378;2022-11-25T13:52:31;11.30;89.00
53776;DHT22;44276;49.534;6.378;2022-11-25T13:55:06;11.40;83.70
53776;DHT22;44276;49.534;6.378;2022-11-25T13:57:47;11.40;76.10
53776;DHT22;44276;49.534;6.378;2022-11-25T14:09:36;11.40;64.60
53776;DHT22;44276;49.534;6.378;2022-11-25T14:12:26;11.40;59.00
53776;DHT22;44276;49.534;6.378;2022-11-25T14:15:18;11.30;58.50
53776;DHT22;44276;49.534;6.378;2022-11-25T14:21:29;11.10;63.50
53776;DHT22;44276;49.534;6.378;2022-11-25T14:24:26;10.90;61.90
53776;DHT22;44276;49.534;6.378;2022-11-25T14:26:57;10.80;66.10
53776;DHT22;44276;49.534;6.378;2022-11-25T14:29:28;10.70;69.10
53776;DHT22;44276;49.534;6.378;2022-11-25T14:32:03;10.60;69.40
53776;DHT22;44276;49.534;6.378;2022-11-25T14:34:37;10.50;68.10
53776;DHT22;44276;49.534;6.378;2022-11-25T14:37:11;10.40;72.40
53776;DHT22;44276;49.534;6.378;2022-11-25T14:39:45;10.50;72.50
53776;DHT22;44276;49.534;6.378;2022-11-25T14:42:20;10.40;74.70
53776;DHT22;44276;49.534;6.378;2022-11-25T14:44:51;10.40;79.60
53776;DHT22;44276;49.534;6.378;2022-11-25T14:47:24;10.40;71.00
53776;DHT22;44276;49.534;6.378;2022-11-25T14:49:54;10.30;70.30
53776;DHT22;44276;49.534;6.378;2022-11-25T14:52:46;10.30;69.70
53776;DHT22;44276;49.534;6.378;2022-11-25T14:55:22;10.30;68.40
53776;DHT22;44276;49.534;6.378;2022-11-25T14:57:53;10.20;71.50
53776;DHT22;44276;49.534;6.378;2022-11-25T15:00:22;10.10;74.90
53776;DHT22;44276;49.534;6.378;2022-11-25T15:02:51;10.10;76.00
53776;DHT22;44276;49.534;6.378;2022-11-25T15:05:22;10.10;80.60
53776;DHT22;44276;49.534;6.378;2022-11-25T15:07:56;10.10;84.10
53776;DHT22;44276;49.534;6.378;2022-11-25T15:10:34;10.10;81.60
53776;DHT22;44276;49.534;6.378;2022-11-25T15:13:08;10.10;88.00
53776;DHT22;44276;49.534;6.378;2022-11-25T15:15:43;10.00;89.90
53776;DHT22;44276;49.534;6.378;2022-11-25T15:18:15;10.00;90.50
53776;DHT22;44276;49.534;6.378;2022-11-25T15:20:46;9.90;93.10
53776;DHT22;44276;49.534;6.378;2022-11-25T15:23:19;9.90;94.80
53776;DHT22;44276;49.534;6.378;2022-11-25T15:25:53;9.90;93.70
53776;DHT22;44276;49.534;6.378;2022-11-25T15:28:23;9.90;96.50
53776;DHT22;44276;49.534;6.378;2022-11-25T15:30:55;9.80;99.90
53776;DHT22;44276;49.534;6.378;2022-11-25T15:33:25;9.80;99.90
53776;DHT22;44276;49.534;6.378;2022-11-25T15:35:55;9.80;99.90
53776;DHT22;44276;49.534;6.378;2022-11-25T15:38:38;9.60;99.90
53776;DHT22;44276;49.534;6.378;2022-11-25T15:41:16;9.70;99.90
53776;DHT22;44276;49.534;6.378;2022-11-25T15:43:47;9.60;99.90
53776;DHT22;44276;49.534;6.378;2022-11-25T15:46:17;9.60;99.90
53776;DHT22;44276;49.534;6.378;2022-11-25T15:48:46;9.50;99.90
53776;DHT22;44276;49.534;6.378;2022-11-25T15:51:20;9.50;99.90
53776;DHT22;44276;49.534;6.378;2022-11-25T15:53:59;9.50;99.90
53776;DHT22;44276;49.534;6.378;2022-11-25T15:56:31;9.50;99.90
53776;DHT22;44276;49.534;6.378;2022-11-25T15:59:02;9.50;99.90
53776;DHT22;44276;49.534;6.378;2022-11-25T16:01:30;9.40;99.90
53776;DHT22;44276;49.534;6.378;2022-11-25T16:04:09;9.40;99.90
53776;DHT22;44276;49.534;6.378;2022-11-25T16:06:50;9.30;99.90
53776;DHT22;44276;49.534;6.378;2022-11-25T16:09:22;9.20;99.90
53776;DHT22;44276;49.534;6.378;2022-11-25T16:12:02;9.20;99.90
53776;DHT22;44276;49.534;6.378;2022-11-25T16:14:33;9.20;99.90
53776;DHT22;44276;49.534;6.378;2022-11-25T16:17:03;9.10;99.90
53776;DHT22;44276;49.534;6.378;2022-11-25T16:19:37;9.00;99.90
53776;DHT22;44276;49.534;6.378;2022-11-25T16:22:09;8.80;99.90
53776;DHT22;44276;49.534;6.378;2022-11-25T16:24:46;8.70;99.90
53776;DHT22;44276;49.534;6.378;2022-11-25T16:27:16;8.50;99.90
53776;DHT22;44276;49.534;6.378;2022-11-25T16:29:47;8.50;99.90
53776;DHT22;44276;49.534;6.378;2022-11-25T16:32:20;8.40;99.90
53776;DHT22;44276;49.534;6.378;2022-11-25T16:34:50;8.20;99.90
53776;DHT22;44276;49.534;6.378;2022-11-25T16:37:21;8.10;99.90
53776;DHT22;44276;49.534;6.378;2022-11-25T16:39:52;8.00;99.90
53776;DHT22;44276;49.534;6.378;2022-11-25T16:42:21;8.00;99.90
53776;DHT22;44276;49.534;6.378;2022-11-25T16:44:49;8.00;99.90